sensor_id;sensor_type;location;lat;lon;timestamp;P1;durP1;ratioP1;P2;durP2;ratioP2
67193;SDS011;54121;53.508;49.422;2022-12-07T00:01:25;36.22;;;14.63;;
67193;SDS011;54121;53.508;49.422;2022-12-07T00:03:54;29.48;;;13.63;;
67193;SDS011;54121;53.508;49.422;2022-12-07T00:06:30;22.23;;;8.90;;
67193;SDS011;54121;53.508;49.422;2022-12-07T00:09:01;35.70;;;13.85;;
67193;SDS011;54121;53.508;49.422;2022-12-07T00:11:28;28.60;;;11.27;;
67193;SDS011;54121;53.508;49.422;2022-12-07T00:13:56;30.50;;;14.52;;
67193;SDS011;54121;53.508;49.422;2022-12-07T00:16:26;27.98;;;11.27;;
67193;SDS011;54121;53.508;49.422;2022-12-07T00:18:55;27.88;;;13.88;;
67193;SDS011;54121;53.508;49.422;2022-12-07T00:21:24;30.58;;;12.50;;
67193;SDS011;54121;53.508;49.422;2022-12-07T00:23:56;28.98;;;12.02;;
67193;SDS011;54121;53.508;49.422;2022-12-07T00:26:27;29.17;;;12.82;;
67193;SDS011;54121;53.508;49.422;2022-12-07T00:28:57;28.50;;;13.32;;
67193;SDS011;54121;53.508;49.422;2022-12-07T00:31:31;29.13;;;11.35;;
67193;SDS011;54121;53.508;49.422;2022-12-07T00:34:01;24.60;;;10.63;;
67193;SDS011;54121;53.508;49.422;2022-12-07T00:36:28;36.40;;;13.18;;
67193;SDS011;54121;53.508;49.422;2022-12-07T00:38:54;35.00;;;13.95;;
67193;SDS011;54121;53.508;49.422;2022-12-07T00:41:23;30.05;;;12.20;;
67193;SDS011;54121;53.508;49.422;2022-12-07T00:43:51;36.15;;;14.40;;
67193;SDS011;54121;53.508;49.422;2022-12-07T00:46:18;22.63;;;11.35;;
67193;SDS011;54121;53.508;49.422;2022-12-07T00:48:46;31.70;;;13.43;;
67193;SDS011;54121;53.508;49.422;2022-12-07T00:51:16;25.98;;;11.98;;
67193;SDS011;54121;53.508;49.422;2022-12-07T00:53:43;26.30;;;13.15;;
67193;SDS011;54121;53.508;49.422;2022-12-07T00:56:14;29.75;;;14.13;;
67193;SDS011;54121;53.508;49.422;2022-12-07T00:58:50;33.28;;;16.98;;
67193;SDS011;54121;53.508;49.422;2022-12-07T01:01:36;31.63;;;14.57;;
67193;SDS011;54121;53.508;49.422;2022-12-07T01:04:03;31.00;;;14.02;;
67193;SDS011;54121;53.508;49.422;2022-12-07T01:06:31;26.98;;;12.27;;
67193;SDS011;54121;53.508;49.422;2022-12-07T01:08:58;31.42;;;14.13;;
67193;SDS011;54121;53.508;49.422;2022-12-07T01:11:26;33.55;;;13.02;;
67193;SDS011;54121;53.508;49.422;2022-12-07T01:13:55;26.58;;;11.95;;
67193;SDS011;54121;53.508;49.422;2022-12-07T01:16:24;43.15;;;13.52;;
67193;SDS011;54121;53.508;49.422;2022-12-07T01:18:52;29.55;;;11.98;;
67193;SDS011;54121;53.508;49.422;2022-12-07T01:21:24;28.58;;;11.68;;
67193;SDS011;54121;53.508;49.422;2022-12-07T01:24:04;28.45;;;12.32;;
67193;SDS011;54121;53.508;49.422;2022-12-07T01:26:33;35.47;;;13.93;;
67193;SDS011;54121;53.508;49.422;2022-12-07T01:29:00;29.45;;;12.00;;
67193;SDS011;54121;53.508;49.422;2022-12-07T01:31:26;26.85;;;13.57;;
67193;SDS011;54121;53.508;49.422;2022-12-07T01:33:54;30.52;;;12.45;;
67193;SDS011;54121;53.508;49.422;2022-12-07T01:36:27;27.63;;;12.50;;
67193;SDS011;54121;53.508;49.422;2022-12-07T01:38:57;37.38;;;13.10;;
67193;SDS011;54121;53.508;49.422;2022-12-07T01:41:26;29.65;;;13.50;;
67193;SDS011;54121;53.508;49.422;2022-12-07T01:46:40;28.50;;;11.55;;
67193;SDS011;54121;53.508;49.422;2022-12-07T01:49:10;31.48;;;15.52;;
67193;SDS011;54121;53.508;49.422;2022-12-07T01:51:41;38.95;;;14.02;;
67193;SDS011;54121;53.508;49.422;2022-12-07T01:54:10;22.13;;;11.23;;
67193;SDS011;54121;53.508;49.422;2022-12-07T01:56:38;18.63;;;9.18;;
67193;SDS011;54121;53.508;49.422;2022-12-07T01:59:07;32.65;;;13.02;;
67193;SDS011;54121;53.508;49.422;2022-12-07T02:01:34;29.38;;;13.10;;
67193;SDS011;54121;53.508;49.422;2022-12-07T02:04:01;29.70;;;14.02;;
67193;SDS011;54121;53.508;49.422;2022-12-07T02:06:27;29.90;;;11.70;;
67193;SDS011;54121;53.508;49.422;2022-12-07T02:08:55;29.02;;;13.40;;
67193;SDS011;54121;53.508;49.422;2022-12-07T02:11:21;26.58;;;11.65;;
67193;SDS011;54121;53.508;49.422;2022-12-07T02:13:48;28.13;;;12.75;;
67193;SDS011;54121;53.508;49.422;2022-12-07T02:19:45;31.17;;;12.23;;
67193;SDS011;54121;53.508;49.422;2022-12-07T02:30:45;28.60;;;12.55;;
67193;SDS011;54121;53.508;49.422;2022-12-07T02:36:02;35.22;;;14.32;;
67193;SDS011;54121;53.508;49.422;2022-12-07T02:38:43;19.58;;;9.38;;
67193;SDS011;54121;53.508;49.422;2022-12-07T02:44:00;33.17;;;12.98;;
67193;SDS011;54121;53.508;49.422;2022-12-07T02:46:32;22.08;;;10.38;;
67193;SDS011;54121;53.508;49.422;2022-12-07T02:49:02;26.63;;;12.10;;
67193;SDS011;54121;53.508;49.422;2022-12-07T02:51:30;26.13;;;10.82;;
67193;SDS011;54121;53.508;49.422;2022-12-07T02:53:58;30.75;;;12.40;;
67193;SDS011;54121;53.508;49.422;2022-12-07T02:56:31;20.85;;;10.85;;
67193;SDS011;54121;53.508;49.422;2022-12-07T02:59:25;33.47;;;13.88;;
67193;SDS011;54121;53.508;49.422;2022-12-07T03:07:52;26.83;;;13.10;;
67193;SDS011;54121;53.508;49.422;2022-12-07T03:13:12;28.15;;;11.98;;
67193;SDS011;54121;53.508;49.422;2022-12-07T03:18:41;31.80;;;12.07;;
67193;SDS011;54121;53.508;49.422;2022-12-07T03:21:16;28.02;;;12.10;;
67193;SDS011;54121;53.508;49.422;2022-12-07T03:23:47;29.98;;;16.10;;
67193;SDS011;54121;53.508;49.422;2022-12-07T03:26:17;26.15;;;12.25;;
67193;SDS011;54121;53.508;49.422;2022-12-07T03:28:47;33.83;;;15.32;;
67193;SDS011;54121;53.508;49.422;2022-12-07T03:31:19;27.13;;;12.52;;
67193;SDS011;54121;53.508;49.422;2022-12-07T03:41:59;39.20;;;18.08;;
67193;SDS011;54121;53.508;49.422;2022-12-07T03:44:28;30.58;;;12.77;;
67193;SDS011;54121;53.508;49.422;2022-12-07T03:54:56;32.63;;;14.27;;
67193;SDS011;54121;53.508;49.422;2022-12-07T03:57:43;21.90;;;9.80;;
67193;SDS011;54121;53.508;49.422;2022-12-07T04:00:13;27.38;;;11.77;;
67193;SDS011;54121;53.508;49.422;2022-12-07T04:02:40;27.17;;;13.80;;
67193;SDS011;54121;53.508;49.422;2022-12-07T04:05:07;31.40;;;13.35;;
67193;SDS011;54121;53.508;49.422;2022-12-07T04:07:35;31.50;;;12.63;;
67193;SDS011;54121;53.508;49.422;2022-12-07T04:10:02;28.15;;;11.73;;
67193;SDS011;54121;53.508;49.422;2022-12-07T04:12:29;30.25;;;14.05;;
67193;SDS011;54121;53.508;49.422;2022-12-07T04:14:56;30.05;;;14.35;;
67193;SDS011;54121;53.508;49.422;2022-12-07T04:17:22;32.45;;;15.43;;
67193;SDS011;54121;53.508;49.422;2022-12-07T04:19:49;28.50;;;11.73;;
67193;SDS011;54121;53.508;49.422;2022-12-07T04:22:15;26.00;;;12.85;;
67193;SDS011;54121;53.508;49.422;2022-12-07T04:24:42;32.60;;;15.55;;
67193;SDS011;54121;53.508;49.422;2022-12-07T04:27:09;40.28;;;13.75;;
67193;SDS011;54121;53.508;49.422;2022-12-07T04:29:36;30.60;;;12.85;;
67193;SDS011;54121;53.508;49.422;2022-12-07T04:32:02;38.38;;;14.80;;
67193;SDS011;54121;53.508;49.422;2022-12-07T04:34:29;42.13;;;14.20;;
67193;SDS011;54121;53.508;49.422;2022-12-07T04:36:55;29.38;;;13.32;;
67193;SDS011;54121;53.508;49.422;2022-12-07T04:39:26;30.23;;;13.02;;
67193;SDS011;54121;53.508;49.422;2022-12-07T04:41:55;28.35;;;12.20;;
67193;SDS011;54121;53.508;49.422;2022-12-07T04:44:22;30.02;;;12.18;;
67193;SDS011;54121;53.508;49.422;2022-12-07T04:46:50;25.10;;;10.70;;
67193;SDS011;54121;53.508;49.422;2022-12-07T04:49:17;25.92;;;12.13;;
67193;SDS011;54121;53.508;49.422;2022-12-07T04:51:44;29.85;;;13.63;;
67193;SDS011;54121;53.508;49.422;2022-12-07T04:54:12;31.02;;;12.57;;
67193;SDS011;54121;53.508;49.422;2022-12-07T04:56:39;32.15;;;13.65;;
67193;SDS011;54121;53.508;49.422;2022-12-07T04:59:06;25.33;;;11.68;;
67193;SDS011;54121;53.508;49.422;2022-12-07T05:01:33;26.27;;;12.75;;
67193;SDS011;54121;53.508;49.422;2022-12-07T05:04:00;36.65;;;12.20;;
67193;SDS011;54121;53.508;49.422;2022-12-07T05:06:26;26.42;;;11.50;;
67193;SDS011;54121;53.508;49.422;2022-12-07T05:08:53;29.60;;;12.45;;
67193;SDS011;54121;53.508;49.422;2022-12-07T05:11:20;30.10;;;12.43;;
67193;SDS011;54121;53.508;49.422;2022-12-07T05:14:13;24.10;;;10.57;;
67193;SDS011;54121;53.508;49.422;2022-12-07T05:16:42;29.95;;;11.27;;
67193;SDS011;54121;53.508;49.422;2022-12-07T05:19:10;29.58;;;12.20;;
67193;SDS011;54121;53.508;49.422;2022-12-07T05:21:38;32.92;;;11.43;;
67193;SDS011;54121;53.508;49.422;2022-12-07T05:24:05;24.90;;;12.23;;
67193;SDS011;54121;53.508;49.422;2022-12-07T05:26:33;29.13;;;11.38;;
67193;SDS011;54121;53.508;49.422;2022-12-07T05:29:00;30.20;;;10.63;;
67193;SDS011;54121;53.508;49.422;2022-12-07T05:31:26;33.35;;;11.38;;
67193;SDS011;54121;53.508;49.422;2022-12-07T05:33:53;27.65;;;11.00;;
67193;SDS011;54121;53.508;49.422;2022-12-07T05:36:20;28.25;;;11.43;;
67193;SDS011;54121;53.508;49.422;2022-12-07T05:38:47;34.42;;;13.50;;
67193;SDS011;54121;53.508;49.422;2022-12-07T05:41:15;31.15;;;12.63;;
67193;SDS011;54121;53.508;49.422;2022-12-07T05:44:01;26.08;;;12.55;;
67193;SDS011;54121;53.508;49.422;2022-12-07T05:46:28;27.70;;;11.45;;
67193;SDS011;54121;53.508;49.422;2022-12-07T05:48:54;25.55;;;10.63;;
67193;SDS011;54121;53.508;49.422;2022-12-07T05:51:21;29.20;;;13.20;;
67193;SDS011;54121;53.508;49.422;2022-12-07T05:53:48;25.88;;;11.05;;
67193;SDS011;54121;53.508;49.422;2022-12-07T05:56:15;32.78;;;11.20;;
67193;SDS011;54121;53.508;49.422;2022-12-07T05:58:41;30.98;;;13.40;;
67193;SDS011;54121;53.508;49.422;2022-12-07T06:01:27;28.02;;;11.20;;
67193;SDS011;54121;53.508;49.422;2022-12-07T06:03:53;29.50;;;11.43;;
67193;SDS011;54121;53.508;49.422;2022-12-07T06:06:20;35.00;;;12.93;;
67193;SDS011;54121;53.508;49.422;2022-12-07T06:08:47;30.85;;;12.32;;
67193;SDS011;54121;53.508;49.422;2022-12-07T06:11:14;27.58;;;12.30;;
67193;SDS011;54121;53.508;49.422;2022-12-07T06:13:59;32.55;;;12.32;;
67193;SDS011;54121;53.508;49.422;2022-12-07T06:16:25;31.77;;;13.85;;
67193;SDS011;54121;53.508;49.422;2022-12-07T06:18:52;25.10;;;13.48;;
67193;SDS011;54121;53.508;49.422;2022-12-07T06:21:18;26.90;;;11.65;;
67193;SDS011;54121;53.508;49.422;2022-12-07T06:23:45;24.55;;;13.32;;
67193;SDS011;54121;53.508;49.422;2022-12-07T06:26:13;24.30;;;11.73;;
67193;SDS011;54121;53.508;49.422;2022-12-07T06:28:40;30.25;;;14.02;;
67193;SDS011;54121;53.508;49.422;2022-12-07T06:31:07;34.08;;;13.88;;
67193;SDS011;54121;53.508;49.422;2022-12-07T06:33:34;24.60;;;12.82;;
67193;SDS011;54121;53.508;49.422;2022-12-07T06:36:01;28.10;;;14.00;;
67193;SDS011;54121;53.508;49.422;2022-12-07T06:38:27;38.70;;;12.95;;
67193;SDS011;54121;53.508;49.422;2022-12-07T06:40:54;33.42;;;14.18;;
67193;SDS011;54121;53.508;49.422;2022-12-07T06:43:21;32.28;;;15.93;;
67193;SDS011;54121;53.508;49.422;2022-12-07T06:45:47;25.90;;;12.50;;
67193;SDS011;54121;53.508;49.422;2022-12-07T06:48:14;31.75;;;13.75;;
67193;SDS011;54121;53.508;49.422;2022-12-07T06:50:40;26.63;;;13.82;;
67193;SDS011;54121;53.508;49.422;2022-12-07T06:53:10;22.20;;;8.73;;
67193;SDS011;54121;53.508;49.422;2022-12-07T06:55:37;28.50;;;14.65;;
67193;SDS011;54121;53.508;49.422;2022-12-07T06:58:03;28.55;;;14.57;;
67193;SDS011;54121;53.508;49.422;2022-12-07T07:00:30;33.80;;;15.20;;
67193;SDS011;54121;53.508;49.422;2022-12-07T07:02:56;25.73;;;13.95;;
67193;SDS011;54121;53.508;49.422;2022-12-07T07:05:23;27.75;;;14.45;;
67193;SDS011;54121;53.508;49.422;2022-12-07T07:07:50;24.25;;;12.35;;
67193;SDS011;54121;53.508;49.422;2022-12-07T07:10:17;28.85;;;13.10;;
67193;SDS011;54121;53.508;49.422;2022-12-07T07:12:43;30.50;;;13.75;;
67193;SDS011;54121;53.508;49.422;2022-12-07T07:15:10;22.40;;;12.55;;
67193;SDS011;54121;53.508;49.422;2022-12-07T07:17:37;23.60;;;13.25;;
67193;SDS011;54121;53.508;49.422;2022-12-07T07:20:07;22.47;;;12.90;;
67193;SDS011;54121;53.508;49.422;2022-12-07T07:22:33;24.70;;;13.23;;
67193;SDS011;54121;53.508;49.422;2022-12-07T07:25:00;26.52;;;12.68;;
67193;SDS011;54121;53.508;49.422;2022-12-07T07:27:27;21.70;;;11.73;;
67193;SDS011;54121;53.508;49.422;2022-12-07T07:29:53;24.83;;;13.57;;
67193;SDS011;54121;53.508;49.422;2022-12-07T07:32:20;23.92;;;13.20;;
67193;SDS011;54121;53.508;49.422;2022-12-07T07:34:47;21.35;;;13.00;;
67193;SDS011;54121;53.508;49.422;2022-12-07T07:37:14;22.10;;;11.20;;
67193;SDS011;54121;53.508;49.422;2022-12-07T07:39:41;24.77;;;12.30;;
67193;SDS011;54121;53.508;49.422;2022-12-07T07:42:08;21.88;;;12.52;;
67193;SDS011;54121;53.508;49.422;2022-12-07T07:44:34;22.88;;;11.55;;
67193;SDS011;54121;53.508;49.422;2022-12-07T07:47:01;24.85;;;11.85;;
67193;SDS011;54121;53.508;49.422;2022-12-07T07:49:29;23.08;;;11.38;;
67193;SDS011;54121;53.508;49.422;2022-12-07T07:51:56;20.98;;;11.18;;
67193;SDS011;54121;53.508;49.422;2022-12-07T07:54:22;22.50;;;12.85;;
67193;SDS011;54121;53.508;49.422;2022-12-07T07:56:49;24.73;;;10.93;;
67193;SDS011;54121;53.508;49.422;2022-12-07T07:59:15;21.05;;;10.80;;
67193;SDS011;54121;53.508;49.422;2022-12-07T08:01:42;21.33;;;10.63;;
67193;SDS011;54121;53.508;49.422;2022-12-07T08:04:09;16.98;;;9.63;;
67193;SDS011;54121;53.508;49.422;2022-12-07T08:06:35;18.30;;;10.90;;
67193;SDS011;54121;53.508;49.422;2022-12-07T08:09:02;25.60;;;11.45;;
67193;SDS011;54121;53.508;49.422;2022-12-07T08:11:31;19.30;;;12.02;;
67193;SDS011;54121;53.508;49.422;2022-12-07T08:13:57;19.45;;;11.80;;
67193;SDS011;54121;53.508;49.422;2022-12-07T08:16:24;21.60;;;11.88;;
67193;SDS011;54121;53.508;49.422;2022-12-07T08:18:51;21.33;;;11.32;;
67193;SDS011;54121;53.508;49.422;2022-12-07T08:21:17;22.33;;;11.43;;
67193;SDS011;54121;53.508;49.422;2022-12-07T08:23:44;19.63;;;10.35;;
67193;SDS011;54121;53.508;49.422;2022-12-07T08:26:12;17.65;;;10.63;;
67193;SDS011;54121;53.508;49.422;2022-12-07T08:28:40;20.00;;;10.77;;
67193;SDS011;54121;53.508;49.422;2022-12-07T08:31:17;20.45;;;11.40;;
67193;SDS011;54121;53.508;49.422;2022-12-07T08:33:45;17.17;;;11.10;;
67193;SDS011;54121;53.508;49.422;2022-12-07T08:36:13;19.90;;;11.15;;
67193;SDS011;54121;53.508;49.422;2022-12-07T08:38:40;18.35;;;10.32;;
67193;SDS011;54121;53.508;49.422;2022-12-07T08:41:07;14.75;;;9.60;;
67193;SDS011;54121;53.508;49.422;2022-12-07T08:43:34;23.55;;;10.60;;
67193;SDS011;54121;53.508;49.422;2022-12-07T08:46:04;18.15;;;9.93;;
67193;SDS011;54121;53.508;49.422;2022-12-07T08:48:37;17.67;;;10.43;;
67193;SDS011;54121;53.508;49.422;2022-12-07T08:51:09;15.32;;;9.02;;
67193;SDS011;54121;53.508;49.422;2022-12-07T08:53:37;20.75;;;10.93;;
67193;SDS011;54121;53.508;49.422;2022-12-07T08:56:04;15.70;;;10.15;;
67193;SDS011;54121;53.508;49.422;2022-12-07T08:58:33;20.85;;;9.40;;
67193;SDS011;54121;53.508;49.422;2022-12-07T09:01:01;23.05;;;10.73;;
67193;SDS011;54121;53.508;49.422;2022-12-07T09:03:28;16.65;;;9.63;;
67193;SDS011;54121;53.508;49.422;2022-12-07T09:05:54;20.23;;;9.85;;
67193;SDS011;54121;53.508;49.422;2022-12-07T09:08:21;19.05;;;11.10;;
67193;SDS011;54121;53.508;49.422;2022-12-07T09:10:49;15.40;;;9.02;;
67193;SDS011;54121;53.508;49.422;2022-12-07T09:13:16;17.20;;;9.30;;
67193;SDS011;54121;53.508;49.422;2022-12-07T09:15:43;16.48;;;9.38;;
67193;SDS011;54121;53.508;49.422;2022-12-07T09:18:09;16.70;;;9.80;;
67193;SDS011;54121;53.508;49.422;2022-12-07T09:20:36;17.20;;;9.73;;
67193;SDS011;54121;53.508;49.422;2022-12-07T09:23:02;15.63;;;9.30;;
67193;SDS011;54121;53.508;49.422;2022-12-07T09:25:32;15.53;;;9.93;;
67193;SDS011;54121;53.508;49.422;2022-12-07T09:27:59;14.85;;;8.38;;
67193;SDS011;54121;53.508;49.422;2022-12-07T09:30:26;19.33;;;9.45;;
67193;SDS011;54121;53.508;49.422;2022-12-07T09:32:54;17.65;;;10.05;;
67193;SDS011;54121;53.508;49.422;2022-12-07T09:35:24;16.23;;;7.85;;
67193;SDS011;54121;53.508;49.422;2022-12-07T09:37:50;18.02;;;9.88;;
67193;SDS011;54121;53.508;49.422;2022-12-07T09:40:18;16.05;;;9.05;;
67193;SDS011;54121;53.508;49.422;2022-12-07T09:42:51;20.75;;;10.13;;
67193;SDS011;54121;53.508;49.422;2022-12-07T09:45:22;22.55;;;10.38;;
67193;SDS011;54121;53.508;49.422;2022-12-07T09:47:52;17.65;;;9.35;;
67193;SDS011;54121;53.508;49.422;2022-12-07T09:50:21;22.15;;;10.18;;
67193;SDS011;54121;53.508;49.422;2022-12-07T09:52:52;16.83;;;9.18;;
67193;SDS011;54121;53.508;49.422;2022-12-07T09:55:24;17.05;;;9.93;;
67193;SDS011;54121;53.508;49.422;2022-12-07T09:57:54;16.77;;;9.80;;
67193;SDS011;54121;53.508;49.422;2022-12-07T10:00:21;17.65;;;8.90;;
67193;SDS011;54121;53.508;49.422;2022-12-07T10:05:20;16.20;;;8.25;;
67193;SDS011;54121;53.508;49.422;2022-12-07T10:08:10;16.77;;;8.87;;
67193;SDS011;54121;53.508;49.422;2022-12-07T10:10:38;18.48;;;9.75;;
67193;SDS011;54121;53.508;49.422;2022-12-07T10:13:14;15.52;;;8.73;;
67193;SDS011;54121;53.508;49.422;2022-12-07T10:18:29;15.80;;;9.02;;
67193;SDS011;54121;53.508;49.422;2022-12-07T10:23:38;14.35;;;8.02;;
67193;SDS011;54121;53.508;49.422;2022-12-07T10:29:00;15.27;;;8.33;;
67193;SDS011;54121;53.508;49.422;2022-12-07T10:31:29;13.95;;;8.02;;
67193;SDS011;54121;53.508;49.422;2022-12-07T10:33:57;17.40;;;8.80;;
67193;SDS011;54121;53.508;49.422;2022-12-07T10:36:27;12.93;;;7.70;;
67193;SDS011;54121;53.508;49.422;2022-12-07T10:39:02;17.02;;;7.68;;
67193;SDS011;54121;53.508;49.422;2022-12-07T10:41:29;14.25;;;7.55;;
67193;SDS011;54121;53.508;49.422;2022-12-07T10:43:56;15.38;;;9.25;;
67193;SDS011;54121;53.508;49.422;2022-12-07T10:54:40;15.25;;;7.03;;
67193;SDS011;54121;53.508;49.422;2022-12-07T10:57:11;14.73;;;7.32;;
67193;SDS011;54121;53.508;49.422;2022-12-07T11:02:50;15.65;;;8.27;;
67193;SDS011;54121;53.508;49.422;2022-12-07T11:08:05;12.98;;;7.68;;
67193;SDS011;54121;53.508;49.422;2022-12-07T11:13:36;11.73;;;7.18;;
67193;SDS011;54121;53.508;49.422;2022-12-07T11:24:17;14.38;;;7.95;;
67193;SDS011;54121;53.508;49.422;2022-12-07T11:29:51;11.65;;;6.85;;
67193;SDS011;54121;53.508;49.422;2022-12-07T11:38:53;9.90;;;6.70;;
67193;SDS011;54121;53.508;49.422;2022-12-07T11:41:24;9.20;;;6.03;;
67193;SDS011;54121;53.508;49.422;2022-12-07T11:46:35;12.60;;;6.78;;
67193;SDS011;54121;53.508;49.422;2022-12-07T11:52:01;11.65;;;5.97;;
67193;SDS011;54121;53.508;49.422;2022-12-07T11:54:32;12.93;;;6.20;;
67193;SDS011;54121;53.508;49.422;2022-12-07T11:57:09;12.30;;;5.88;;
67193;SDS011;54121;53.508;49.422;2022-12-07T11:59:49;10.52;;;5.78;;
67193;SDS011;54121;53.508;49.422;2022-12-07T12:02:26;12.02;;;6.18;;
67193;SDS011;54121;53.508;49.422;2022-12-07T12:05:05;10.35;;;6.00;;
67193;SDS011;54121;53.508;49.422;2022-12-07T12:07:44;9.30;;;5.32;;
67193;SDS011;54121;53.508;49.422;2022-12-07T12:10:17;11.75;;;5.45;;
67193;SDS011;54121;53.508;49.422;2022-12-07T12:12:53;15.18;;;5.15;;
67193;SDS011;54121;53.508;49.422;2022-12-07T12:15:37;20.27;;;5.30;;
67193;SDS011;54121;53.508;49.422;2022-12-07T12:21:26;12.30;;;5.07;;
67193;SDS011;54121;53.508;49.422;2022-12-07T12:23:59;11.63;;;4.60;;
67193;SDS011;54121;53.508;49.422;2022-12-07T12:26:31;9.52;;;4.90;;
67193;SDS011;54121;53.508;49.422;2022-12-07T12:29:07;12.00;;;4.45;;
67193;SDS011;54121;53.508;49.422;2022-12-07T12:32:04;10.15;;;5.25;;
67193;SDS011;54121;53.508;49.422;2022-12-07T12:43:00;8.15;;;4.30;;
67193;SDS011;54121;53.508;49.422;2022-12-07T12:45:28;7.82;;;4.75;;
67193;SDS011;54121;53.508;49.422;2022-12-07T12:50:33;13.43;;;5.40;;
67193;SDS011;54121;53.508;49.422;2022-12-07T12:53:23;12.70;;;4.85;;
67193;SDS011;54121;53.508;49.422;2022-12-07T12:58:34;12.82;;;5.82;;
67193;SDS011;54121;53.508;49.422;2022-12-07T13:10:23;16.83;;;5.15;;
67193;SDS011;54121;53.508;49.422;2022-12-07T13:13:00;18.17;;;6.15;;
67193;SDS011;54121;53.508;49.422;2022-12-07T13:20:59;14.48;;;5.13;;
67193;SDS011;54121;53.508;49.422;2022-12-07T13:26:15;14.73;;;6.28;;
67193;SDS011;54121;53.508;49.422;2022-12-07T13:28:50;21.08;;;6.25;;
67193;SDS011;54121;53.508;49.422;2022-12-07T13:37:15;12.80;;;5.20;;
67193;SDS011;54121;53.508;49.422;2022-12-07T13:42:45;16.17;;;5.13;;
67193;SDS011;54121;53.508;49.422;2022-12-07T13:45:20;16.02;;;6.15;;
67193;SDS011;54121;53.508;49.422;2022-12-07T13:48:10;18.80;;;6.65;;
67193;SDS011;54121;53.508;49.422;2022-12-07T13:50:51;14.95;;;5.18;;
67193;SDS011;54121;53.508;49.422;2022-12-07T13:53:20;40.28;;;5.55;;
67193;SDS011;54121;53.508;49.422;2022-12-07T13:55:47;10.68;;;4.65;;
67193;SDS011;54121;53.508;49.422;2022-12-07T13:58:13;12.27;;;5.22;;
67193;SDS011;54121;53.508;49.422;2022-12-07T14:00:40;16.90;;;5.35;;
67193;SDS011;54121;53.508;49.422;2022-12-07T14:05:37;19.40;;;6.37;;
67193;SDS011;54121;53.508;49.422;2022-12-07T14:10:39;19.73;;;6.07;;
67193;SDS011;54121;53.508;49.422;2022-12-07T14:16:01;13.07;;;5.20;;
67193;SDS011;54121;53.508;49.422;2022-12-07T14:18:36;19.88;;;6.13;;
67193;SDS011;54121;53.508;49.422;2022-12-07T14:21:06;16.42;;;5.38;;
67193;SDS011;54121;53.508;49.422;2022-12-07T14:23:39;18.30;;;3.78;;
67193;SDS011;54121;53.508;49.422;2022-12-07T14:28:40;14.32;;;5.40;;
67193;SDS011;54121;53.508;49.422;2022-12-07T14:31:10;10.52;;;4.00;;
67193;SDS011;54121;53.508;49.422;2022-12-07T14:33:42;11.23;;;4.63;;
67193;SDS011;54121;53.508;49.422;2022-12-07T14:36:10;11.02;;;4.03;;
67193;SDS011;54121;53.508;49.422;2022-12-07T14:38:38;11.40;;;3.90;;
67193;SDS011;54121;53.508;49.422;2022-12-07T14:41:15;18.15;;;5.63;;
67193;SDS011;54121;53.508;49.422;2022-12-07T14:46:38;22.38;;;7.47;;
67193;SDS011;54121;53.508;49.422;2022-12-07T14:49:04;21.42;;;8.73;;
67193;SDS011;54121;53.508;49.422;2022-12-07T14:51:31;19.58;;;7.22;;
67193;SDS011;54121;53.508;49.422;2022-12-07T14:53:59;14.02;;;4.32;;
67193;SDS011;54121;53.508;49.422;2022-12-07T14:56:26;28.77;;;9.70;;
67193;SDS011;54121;53.508;49.422;2022-12-07T14:58:53;16.88;;;6.70;;
67193;SDS011;54121;53.508;49.422;2022-12-07T15:01:20;19.63;;;7.95;;
67193;SDS011;54121;53.508;49.422;2022-12-07T15:03:46;18.42;;;6.40;;
67193;SDS011;54121;53.508;49.422;2022-12-07T15:06:14;15.18;;;7.65;;
67193;SDS011;54121;53.508;49.422;2022-12-07T15:08:41;27.88;;;10.10;;
67193;SDS011;54121;53.508;49.422;2022-12-07T15:11:13;20.58;;;6.80;;
67193;SDS011;54121;53.508;49.422;2022-12-07T15:13:41;11.75;;;5.28;;
67193;SDS011;54121;53.508;49.422;2022-12-07T15:16:26;24.73;;;7.78;;
67193;SDS011;54121;53.508;49.422;2022-12-07T15:18:53;18.98;;;6.32;;
67193;SDS011;54121;53.508;49.422;2022-12-07T15:21:19;13.95;;;5.50;;
67193;SDS011;54121;53.508;49.422;2022-12-07T15:23:46;17.52;;;6.53;;
67193;SDS011;54121;53.508;49.422;2022-12-07T15:26:13;22.98;;;6.80;;
67193;SDS011;54121;53.508;49.422;2022-12-07T15:28:40;18.35;;;6.50;;
67193;SDS011;54121;53.508;49.422;2022-12-07T15:31:13;18.75;;;7.05;;
67193;SDS011;54121;53.508;49.422;2022-12-07T15:33:42;19.42;;;7.07;;
67193;SDS011;54121;53.508;49.422;2022-12-07T15:36:15;18.30;;;7.10;;
67193;SDS011;54121;53.508;49.422;2022-12-07T15:38:46;22.35;;;6.93;;
67193;SDS011;54121;53.508;49.422;2022-12-07T15:41:17;22.17;;;8.65;;
67193;SDS011;54121;53.508;49.422;2022-12-07T15:43:44;21.15;;;7.45;;
67193;SDS011;54121;53.508;49.422;2022-12-07T15:46:30;16.77;;;8.55;;
67193;SDS011;54121;53.508;49.422;2022-12-07T15:49:01;14.25;;;5.50;;
67193;SDS011;54121;53.508;49.422;2022-12-07T15:51:28;18.98;;;8.43;;
67193;SDS011;54121;53.508;49.422;2022-12-07T15:53:54;13.82;;;4.95;;
67193;SDS011;54121;53.508;49.422;2022-12-07T15:56:22;16.30;;;7.05;;
67193;SDS011;54121;53.508;49.422;2022-12-07T15:58:49;15.45;;;5.60;;
67193;SDS011;54121;53.508;49.422;2022-12-07T16:01:17;18.63;;;6.00;;
67193;SDS011;54121;53.508;49.422;2022-12-07T16:03:44;21.30;;;5.45;;
67193;SDS011;54121;53.508;49.422;2022-12-07T16:06:12;13.38;;;5.25;;
67193;SDS011;54121;53.508;49.422;2022-12-07T16:08:43;7.72;;;3.33;;
67193;SDS011;54121;53.508;49.422;2022-12-07T16:11:11;9.25;;;4.03;;
67193;SDS011;54121;53.508;49.422;2022-12-07T16:13:38;19.02;;;6.40;;
67193;SDS011;54121;53.508;49.422;2022-12-07T16:16:09;19.02;;;7.75;;
67193;SDS011;54121;53.508;49.422;2022-12-07T16:18:38;13.00;;;4.57;;
67193;SDS011;54121;53.508;49.422;2022-12-07T16:21:05;11.48;;;5.63;;
67193;SDS011;54121;53.508;49.422;2022-12-07T16:23:31;16.15;;;7.50;;
67193;SDS011;54121;53.508;49.422;2022-12-07T16:26:08;22.98;;;5.57;;
67193;SDS011;54121;53.508;49.422;2022-12-07T16:28:37;16.40;;;5.15;;
67193;SDS011;54121;53.508;49.422;2022-12-07T16:31:05;23.40;;;6.72;;
67193;SDS011;54121;53.508;49.422;2022-12-07T16:33:35;12.20;;;5.95;;
67193;SDS011;54121;53.508;49.422;2022-12-07T16:36:03;16.60;;;4.93;;
67193;SDS011;54121;53.508;49.422;2022-12-07T16:38:31;18.27;;;6.80;;
67193;SDS011;54121;53.508;49.422;2022-12-07T16:40:58;7.82;;;2.75;;
67193;SDS011;54121;53.508;49.422;2022-12-07T16:43:24;16.10;;;7.32;;
67193;SDS011;54121;53.508;49.422;2022-12-07T16:45:51;16.80;;;8.07;;
67193;SDS011;54121;53.508;49.422;2022-12-07T16:48:18;18.52;;;7.65;;
67193;SDS011;54121;53.508;49.422;2022-12-07T16:50:45;16.40;;;5.03;;
67193;SDS011;54121;53.508;49.422;2022-12-07T16:53:13;8.68;;;4.05;;
67193;SDS011;54121;53.508;49.422;2022-12-07T16:55:42;11.02;;;4.75;;
67193;SDS011;54121;53.508;49.422;2022-12-07T16:58:14;14.88;;;5.68;;
67193;SDS011;54121;53.508;49.422;2022-12-07T17:00:42;10.73;;;4.40;;
67193;SDS011;54121;53.508;49.422;2022-12-07T17:03:09;15.68;;;6.60;;
67193;SDS011;54121;53.508;49.422;2022-12-07T17:05:38;16.00;;;8.73;;